sensor_id;sensor_type;location;lat;lon;timestamp;pressure;altitude;pressure_sealevel;temperature;humidity
62164;BME280;48149;51.132;7.178;2022-11-15T00:01:47;98166.75;;;9.34;100.00
62164;BME280;48149;51.132;7.178;2022-11-15T00:04:14;98160.06;;;9.38;100.00
62164;BME280;48149;51.132;7.178;2022-11-15T00:06:39;98155.28;;;9.35;100.00
62164;BME280;48149;51.132;7.178;2022-11-15T00:09:05;98159.41;;;9.42;100.00
62164;BME280;48149;51.132;7.178;2022-11-15T00:11:31;98160.00;;;9.44;100.00
62164;BME280;48149;51.132;7.178;2022-11-15T00:13:56;98150.50;;;9.50;100.00
62164;BME280;48149;51.132;7.178;2022-11-15T00:16:22;98152.41;;;9.61;100.00
62164;BME280;48149;51.132;7.178;2022-11-15T00:18:48;98164.81;;;9.65;100.00
62164;BME280;48149;51.132;7.178;2022-11-15T00:21:13;98159.13;;;9.69;100.00
62164;BME280;48149;51.132;7.178;2022-11-15T00:23:39;98159.63;;;9.77;100.00
62164;BME280;48149;51.132;7.178;2022-11-15T00:26:04;98156.81;;;9.79;100.00
62164;BME280;48149;51.132;7.178;2022-11-15T00:28:29;98148.34;;;9.83;100.00
62164;BME280;48149;51.132;7.178;2022-11-15T00:31:01;98156.00;;;9.96;100.00
62164;BME280;48149;51.132;7.178;2022-11-15T00:33:27;98162.50;;;10.05;100.00
62164;BME280;48149;51.132;7.178;2022-11-15T00:35:52;98152.34;;;10.15;100.00
62164;BME280;48149;51.132;7.178;2022-11-15T00:38:18;98157.75;;;10.21;100.00
62164;BME280;48149;51.132;7.178;2022-11-15T00:40:43;98149.66;;;10.22;100.00
62164;BME280;48149;51.132;7.178;2022-11-15T00:43:12;98162.22;;;10.32;100.00
62164;BME280;48149;51.132;7.178;2022-11-15T00:45:37;98156.34;;;10.18;100.00
62164;BME280;48149;51.132;7.178;2022-11-15T00:48:04;98142.25;;;13.45;100.00
62164;BME280;48149;51.132;7.178;2022-11-15T00:50:29;98127.22;;;11.60;100.00
62164;BME280;48149;51.132;7.178;2022-11-15T00:52:55;98139.69;;;10.95;100.00
62164;BME280;48149;51.132;7.178;2022-11-15T00:55:21;98156.97;;;10.85;100.00
62164;BME280;48149;51.132;7.178;2022-11-15T00:57:52;98144.03;;;10.90;100.00
62164;BME280;48149;51.132;7.178;2022-11-15T01:00:17;98157.53;;;10.75;100.00
62164;BME280;48149;51.132;7.178;2022-11-15T01:02:44;98151.38;;;10.69;100.00
62164;BME280;48149;51.132;7.178;2022-11-15T01:05:10;98150.38;;;10.70;100.00
62164;BME280;48149;51.132;7.178;2022-11-15T01:07:36;98139.00;;;10.77;100.00
62164;BME280;48149;51.132;7.178;2022-11-15T01:10:02;98141.28;;;10.85;100.00
62164;BME280;48149;51.132;7.178;2022-11-15T01:12:29;98142.78;;;10.92;100.00
62164;BME280;48149;51.132;7.178;2022-11-15T01:14:55;98133.19;;;10.75;100.00
62164;BME280;48149;51.132;7.178;2022-11-15T01:17:20;98145.38;;;10.81;100.00
62164;BME280;48149;51.132;7.178;2022-11-15T01:19:46;98130.69;;;10.80;100.00
62164;BME280;48149;51.132;7.178;2022-11-15T01:22:11;98133.66;;;10.83;100.00
62164;BME280;48149;51.132;7.178;2022-11-15T01:24:36;98126.81;;;10.82;100.00
62164;BME280;48149;51.132;7.178;2022-11-15T01:27:01;98130.03;;;10.96;100.00
62164;BME280;48149;51.132;7.178;2022-11-15T01:31:55;98130.13;;;10.89;100.00
62164;BME280;48149;51.132;7.178;2022-11-15T01:34:20;98117.84;;;10.90;100.00
62164;BME280;48149;51.132;7.178;2022-11-15T01:36:45;98115.66;;;10.75;100.00
62164;BME280;48149;51.132;7.178;2022-11-15T01:39:11;98121.69;;;10.76;100.00
62164;BME280;48149;51.132;7.178;2022-11-15T01:41:36;98122.13;;;10.73;100.00
62164;BME280;48149;51.132;7.178;2022-11-15T01:46:46;98120.31;;;10.85;100.00
62164;BME280;48149;51.132;7.178;2022-11-15T01:49:16;98121.13;;;10.85;100.00
62164;BME280;48149;51.132;7.178;2022-11-15T01:51:42;98123.41;;;10.82;100.00
62164;BME280;48149;51.132;7.178;2022-11-15T01:54:09;98121.69;;;10.76;100.00
62164;BME280;48149;51.132;7.178;2022-11-15T01:56:38;98116.69;;;10.86;100.00
62164;BME280;48149;51.132;7.178;2022-11-15T01:59:09;98120.91;;;10.87;100.00
62164;BME280;48149;51.132;7.178;2022-11-15T02:01:35;98118.09;;;11.00;100.00
62164;BME280;48149;51.132;7.178;2022-11-15T02:04:13;98113.50;;;11.07;100.00
62164;BME280;48149;51.132;7.178;2022-11-15T02:06:39;98112.03;;;10.99;100.00
62164;BME280;48149;51.132;7.178;2022-11-15T02:09:05;98108.72;;;11.04;100.00
62164;BME280;48149;51.132;7.178;2022-11-15T02:11:31;98107.25;;;10.96;100.00
62164;BME280;48149;51.132;7.178;2022-11-15T02:13:56;98100.41;;;10.95;100.00
62164;BME280;48149;51.132;7.178;2022-11-15T02:16:42;98102.59;;;10.98;100.00
62164;BME280;48149;51.132;7.178;2022-11-15T02:22:22;98092.22;;;11.03;100.00
62164;BME280;48149;51.132;7.178;2022-11-15T02:25:10;98092.00;;;10.93;100.00
62164;BME280;48149;51.132;7.178;2022-11-15T02:35:01;98083.91;;;10.83;100.00
62164;BME280;48149;51.132;7.178;2022-11-15T02:42:35;98073.78;;;10.98;100.00
62164;BME280;48149;51.132;7.178;2022-11-15T02:45:24;98070.34;;;10.98;100.00
62164;BME280;48149;51.132;7.178;2022-11-15T02:47:51;98072.16;;;10.97;100.00
62164;BME280;48149;51.132;7.178;2022-11-15T02:50:20;98065.81;;;11.05;100.00
62164;BME280;48149;51.132;7.178;2022-11-15T02:52:46;98072.19;;;11.60;100.00
62164;BME280;48149;51.132;7.178;2022-11-15T02:58:37;98056.88;;;11.29;100.00
62164;BME280;48149;51.132;7.178;2022-11-15T03:01:08;98062.16;;;10.94;100.00
62164;BME280;48149;51.132;7.178;2022-11-15T03:06:09;98063.88;;;11.12;100.00
62164;BME280;48149;51.132;7.178;2022-11-15T03:11:28;98062.28;;;10.99;100.00
62164;BME280;48149;51.132;7.178;2022-11-15T03:13:59;98060.66;;;11.10;100.00
62164;BME280;48149;51.132;7.178;2022-11-15T03:16:28;98068.97;;;11.07;100.00
62164;BME280;48149;51.132;7.178;2022-11-15T03:18:58;98054.78;;;11.03;100.00
62164;BME280;48149;51.132;7.178;2022-11-15T03:21:26;98057.81;;;11.11;100.00
62164;BME280;48149;51.132;7.178;2022-11-15T03:23:53;98061.56;;;11.04;100.00
62164;BME280;48149;51.132;7.178;2022-11-15T03:26:19;98060.47;;;11.00;100.00
62164;BME280;48149;51.132;7.178;2022-11-15T03:31:13;98055.53;;;11.15;100.00
62164;BME280;48149;51.132;7.178;2022-11-15T03:34:00;98047.34;;;11.11;100.00
62164;BME280;48149;51.132;7.178;2022-11-15T03:36:30;98057.03;;;11.11;100.00
62164;BME280;48149;51.132;7.178;2022-11-15T03:38:59;98050.78;;;11.12;100.00
62164;BME280;48149;51.132;7.178;2022-11-15T03:44:04;98052.00;;;11.21;100.00
62164;BME280;48149;51.132;7.178;2022-11-15T03:46:32;98042.06;;;11.23;100.00
62164;BME280;48149;51.132;7.178;2022-11-15T03:49:01;98046.72;;;11.33;100.00
62164;BME280;48149;51.132;7.178;2022-11-15T03:51:29;98038.31;;;11.31;100.00
62164;BME280;48149;51.132;7.178;2022-11-15T03:53:56;98034.44;;;11.33;100.00
62164;BME280;48149;51.132;7.178;2022-11-15T03:56:21;98045.03;;;11.27;100.00
62164;BME280;48149;51.132;7.178;2022-11-15T03:58:46;98047.19;;;11.30;100.00
62164;BME280;48149;51.132;7.178;2022-11-15T04:01:11;98046.41;;;11.29;100.00
62164;BME280;48149;51.132;7.178;2022-11-15T04:03:36;98043.91;;;11.34;100.00
62164;BME280;48149;51.132;7.178;2022-11-15T04:06:03;98041.81;;;11.36;100.00
62164;BME280;48149;51.132;7.178;2022-11-15T04:08:28;98039.16;;;11.48;100.00
62164;BME280;48149;51.132;7.178;2022-11-15T04:10:53;98035.81;;;11.64;100.00
62164;BME280;48149;51.132;7.178;2022-11-15T04:13:18;98034.84;;;11.53;100.00
62164;BME280;48149;51.132;7.178;2022-11-15T04:15:44;98036.88;;;11.51;100.00
62164;BME280;48149;51.132;7.178;2022-11-15T04:18:09;98029.94;;;11.45;100.00
62164;BME280;48149;51.132;7.178;2022-11-15T04:20:34;98044.06;;;11.56;100.00
62164;BME280;48149;51.132;7.178;2022-11-15T04:23:21;98044.75;;;11.51;100.00
62164;BME280;48149;51.132;7.178;2022-11-15T04:28:35;98035.72;;;11.70;100.00
62164;BME280;48149;51.132;7.178;2022-11-15T04:31:00;98030.91;;;11.67;100.00
62164;BME280;48149;51.132;7.178;2022-11-15T04:33:26;98036.03;;;11.74;100.00
62164;BME280;48149;51.132;7.178;2022-11-15T04:35:51;98035.72;;;11.70;100.00
62164;BME280;48149;51.132;7.178;2022-11-15T04:38:35;98033.09;;;11.59;100.00
62164;BME280;48149;51.132;7.178;2022-11-15T04:41:01;98032.28;;;11.70;100.00
62164;BME280;48149;51.132;7.178;2022-11-15T04:43:26;98038.41;;;11.75;100.00
62164;BME280;48149;51.132;7.178;2022-11-15T04:45:52;98026.81;;;11.71;100.00
62164;BME280;48149;51.132;7.178;2022-11-15T04:48:19;98030.78;;;11.74;100.00
62164;BME280;48149;51.132;7.178;2022-11-15T04:50:47;98030.81;;;11.62;100.00
62164;BME280;48149;51.132;7.178;2022-11-15T04:53:12;98024.13;;;11.83;100.00
62164;BME280;48149;51.132;7.178;2022-11-15T04:55:37;98011.97;;;11.77;100.00
62164;BME280;48149;51.132;7.178;2022-11-15T04:58:03;98023.41;;;11.59;100.00
62164;BME280;48149;51.132;7.178;2022-11-15T05:00:28;98026.56;;;11.73;100.00
62164;BME280;48149;51.132;7.178;2022-11-15T05:02:53;98024.19;;;11.60;100.00
62164;BME280;48149;51.132;7.178;2022-11-15T05:05:38;98023.81;;;11.80;100.00
62164;BME280;48149;51.132;7.178;2022-11-15T05:08:03;98021.13;;;11.63;100.00
62164;BME280;48149;51.132;7.178;2022-11-15T05:10:29;98029.88;;;11.68;100.00
62164;BME280;48149;51.132;7.178;2022-11-15T05:12:54;98021.44;;;11.66;100.00
62164;BME280;48149;51.132;7.178;2022-11-15T05:15:19;98027.28;;;11.57;100.00
62164;BME280;48149;51.132;7.178;2022-11-15T05:17:45;98031.63;;;11.63;100.00
62164;BME280;48149;51.132;7.178;2022-11-15T05:20:10;98029.59;;;11.53;100.00
62164;BME280;48149;51.132;7.178;2022-11-15T05:22:36;98032.31;;;11.58;100.00
62164;BME280;48149;51.132;7.178;2022-11-15T05:25:01;98034.53;;;11.66;100.00
62164;BME280;48149;51.132;7.178;2022-11-15T05:27:26;98036.94;;;11.68;100.00
62164;BME280;48149;51.132;7.178;2022-11-15T05:29:51;98040.97;;;11.59;100.00
62164;BME280;48149;51.132;7.178;2022-11-15T05:32:17;98034.06;;;11.69;100.00
62164;BME280;48149;51.132;7.178;2022-11-15T05:34:42;98028.63;;;11.71;100.00
62164;BME280;48149;51.132;7.178;2022-11-15T05:37:08;98018.66;;;11.56;100.00
62164;BME280;48149;51.132;7.178;2022-11-15T05:39:33;98027.03;;;11.70;100.00
62164;BME280;48149;51.132;7.178;2022-11-15T05:42:16;98030.22;;;11.60;100.00
62164;BME280;48149;51.132;7.178;2022-11-15T05:44:43;98029.75;;;11.63;100.00
62164;BME280;48149;51.132;7.178;2022-11-15T05:47:12;98025.72;;;11.56;100.00
62164;BME280;48149;51.132;7.178;2022-11-15T05:49:38;98026.94;;;11.65;100.00
62164;BME280;48149;51.132;7.178;2022-11-15T05:52:06;98021.19;;;11.80;100.00
62164;BME280;48149;51.132;7.178;2022-11-15T05:54:32;98023.88;;;11.56;100.00
62164;BME280;48149;51.132;7.178;2022-11-15T05:56:59;98030.06;;;11.50;100.00
62164;BME280;48149;51.132;7.178;2022-11-15T05:59:25;98024.44;;;11.58;100.00
62164;BME280;48149;51.132;7.178;2022-11-15T06:01:50;98024.81;;;11.50;100.00
62164;BME280;48149;51.132;7.178;2022-11-15T06:04:16;98025.38;;;11.52;100.00
62164;BME280;48149;51.132;7.178;2022-11-15T06:06:41;98028.09;;;11.57;100.00
62164;BME280;48149;51.132;7.178;2022-11-15T06:09:06;98031.09;;;11.49;100.00
62164;BME280;48149;51.132;7.178;2022-11-15T06:11:31;98039.50;;;11.51;100.00
62164;BME280;48149;51.132;7.178;2022-11-15T06:13:59;98028.09;;;11.57;100.00
62164;BME280;48149;51.132;7.178;2022-11-15T06:16:24;98037.25;;;11.43;100.00
62164;BME280;48149;51.132;7.178;2022-11-15T06:18:50;98034.91;;;11.30;100.00
62164;BME280;48149;51.132;7.178;2022-11-15T06:21:15;98030.16;;;11.15;100.00
62164;BME280;48149;51.132;7.178;2022-11-15T06:23:42;98033.66;;;11.09;100.00
62164;BME280;48149;51.132;7.178;2022-11-15T06:26:10;98038.91;;;11.09;100.00
62164;BME280;48149;51.132;7.178;2022-11-15T06:28:35;98053.94;;;10.91;100.00
62164;BME280;48149;51.132;7.178;2022-11-15T06:31:08;98060.59;;;10.93;100.00
62164;BME280;48149;51.132;7.178;2022-11-15T06:33:34;98060.34;;;10.83;100.00
62164;BME280;48149;51.132;7.178;2022-11-15T06:36:02;98055.66;;;10.85;100.00
62164;BME280;48149;51.132;7.178;2022-11-15T06:38:28;98065.25;;;10.80;100.00
62164;BME280;48149;51.132;7.178;2022-11-15T06:40:54;98063.41;;;10.92;100.00
62164;BME280;48149;51.132;7.178;2022-11-15T06:43:19;98069.91;;;11.12;100.00
62164;BME280;48149;51.132;7.178;2022-11-15T06:45:44;98068.41;;;11.05;100.00
62164;BME280;48149;51.132;7.178;2022-11-15T06:48:10;98066.72;;;10.99;100.00
62164;BME280;48149;51.132;7.178;2022-11-15T06:50:36;98072.19;;;10.86;100.00
62164;BME280;48149;51.132;7.178;2022-11-15T06:53:02;98078.09;;;10.81;100.00
62164;BME280;48149;51.132;7.178;2022-11-15T06:55:28;98081.63;;;10.63;100.00
62164;BME280;48149;51.132;7.178;2022-11-15T06:57:53;98076.84;;;10.60;100.00
62164;BME280;48149;51.132;7.178;2022-11-15T07:00:19;98084.22;;;10.63;100.00
62164;BME280;48149;51.132;7.178;2022-11-15T07:02:46;98080.00;;;10.62;100.00
62164;BME280;48149;51.132;7.178;2022-11-15T07:05:12;98076.47;;;10.57;100.00
62164;BME280;48149;51.132;7.178;2022-11-15T07:07:39;98078.53;;;10.66;100.00
62164;BME280;48149;51.132;7.178;2022-11-15T07:10:06;98090.47;;;10.62;100.00
62164;BME280;48149;51.132;7.178;2022-11-15T07:12:31;98088.66;;;10.51;100.00
62164;BME280;48149;51.132;7.178;2022-11-15T07:14:57;98091.72;;;10.60;100.00
62164;BME280;48149;51.132;7.178;2022-11-15T07:17:22;98089.56;;;10.68;100.00
62164;BME280;48149;51.132;7.178;2022-11-15T07:19:47;98090.16;;;10.70;100.00
62164;BME280;48149;51.132;7.178;2022-11-15T07:22:12;98072.28;;;12.67;100.00
62164;BME280;48149;51.132;7.178;2022-11-15T07:24:39;98070.34;;;12.62;100.00
62164;BME280;48149;51.132;7.178;2022-11-15T07:27:04;98076.78;;;12.71;100.00
62164;BME280;48149;51.132;7.178;2022-11-15T07:29:29;98081.59;;;12.29;100.00
62164;BME280;48149;51.132;7.178;2022-11-15T07:31:54;98083.41;;;12.57;100.00
62164;BME280;48149;51.132;7.178;2022-11-15T07:34:20;98080.91;;;12.34;100.00
62164;BME280;48149;51.132;7.178;2022-11-15T07:36:45;98084.50;;;12.28;100.00
62164;BME280;48149;51.132;7.178;2022-11-15T07:39:10;98084.50;;;12.61;100.00
62164;BME280;48149;51.132;7.178;2022-11-15T07:41:37;98083.88;;;12.88;100.00
62164;BME280;48149;51.132;7.178;2022-11-15T07:44:04;98086.66;;;12.64;100.00
62164;BME280;48149;51.132;7.178;2022-11-15T07:46:29;98084.50;;;12.95;100.00
62164;BME280;48149;51.132;7.178;2022-11-15T07:48:55;98084.34;;;12.84;100.00
62164;BME280;48149;51.132;7.178;2022-11-15T07:51:22;98084.34;;;12.84;100.00
62164;BME280;48149;51.132;7.178;2022-11-15T07:53:47;98081.41;;;12.48;100.00
62164;BME280;48149;51.132;7.178;2022-11-15T07:56:12;98081.16;;;12.66;100.00
62164;BME280;48149;51.132;7.178;2022-11-15T07:58:38;98088.72;;;12.79;100.00
62164;BME280;48149;51.132;7.178;2022-11-15T08:01:08;98088.56;;;12.86;100.00
62164;BME280;48149;51.132;7.178;2022-11-15T08:03:34;98076.13;;;13.14;100.00
62164;BME280;48149;51.132;7.178;2022-11-15T08:05:59;98086.88;;;12.96;100.00
62164;BME280;48149;51.132;7.178;2022-11-15T08:08:25;98087.94;;;12.95;100.00
62164;BME280;48149;51.132;7.178;2022-11-15T08:10:50;98078.31;;;13.39;100.00
62164;BME280;48149;51.132;7.178;2022-11-15T08:13:21;98087.13;;;12.78;100.00
62164;BME280;48149;51.132;7.178;2022-11-15T08:15:47;98078.66;;;12.93;100.00
62164;BME280;48149;51.132;7.178;2022-11-15T08:18:13;98076.22;;;13.41;100.00
62164;BME280;48149;51.132;7.178;2022-11-15T08:20:42;98080.72;;;13.24;100.00
62164;BME280;48149;51.132;7.178;2022-11-15T08:23:09;98077.94;;;14.01;100.00
62164;BME280;48149;51.132;7.178;2022-11-15T08:25:35;98086.25;;;13.66;100.00
62164;BME280;48149;51.132;7.178;2022-11-15T08:28:02;98081.16;;;13.38;100.00
62164;BME280;48149;51.132;7.178;2022-11-15T08:30:30;98069.94;;;13.42;100.00
62164;BME280;48149;51.132;7.178;2022-11-15T08:32:59;98068.16;;;13.26;100.00
62164;BME280;48149;51.132;7.178;2022-11-15T08:35:24;98070.94;;;13.03;100.00
62164;BME280;48149;51.132;7.178;2022-11-15T08:37:50;98076.34;;;13.51;100.00
62164;BME280;48149;51.132;7.178;2022-11-15T08:40:17;98069.53;;;13.33;100.00
62164;BME280;48149;51.132;7.178;2022-11-15T08:42:46;98073.16;;;13.49;100.00
62164;BME280;48149;51.132;7.178;2022-11-15T08:45:13;98072.34;;;13.92;100.00
62164;BME280;48149;51.132;7.178;2022-11-15T08:47:39;98065.22;;;14.78;100.00
62164;BME280;48149;51.132;7.178;2022-11-15T08:50:04;98058.78;;;14.64;100.00
62164;BME280;48149;51.132;7.178;2022-11-15T08:52:31;98059.00;;;13.99;100.00
62164;BME280;48149;51.132;7.178;2022-11-15T08:54:57;98052.38;;;14.50;100.00
62164;BME280;48149;51.132;7.178;2022-11-15T08:57:22;98055.34;;;15.00;100.00
62164;BME280;48149;51.132;7.178;2022-11-15T08:59:47;98050.66;;;14.70;100.00
62164;BME280;48149;51.132;7.178;2022-11-15T09:02:13;98049.84;;;15.59;100.00
62164;BME280;48149;51.132;7.178;2022-11-15T09:04:42;98054.22;;;16.30;100.00
62164;BME280;48149;51.132;7.178;2022-11-15T09:07:08;98044.66;;;15.22;100.00
62164;BME280;48149;51.132;7.178;2022-11-15T09:09:34;98036.72;;;15.79;100.00
62164;BME280;48149;51.132;7.178;2022-11-15T09:11:59;98038.91;;;14.83;100.00
62164;BME280;48149;51.132;7.178;2022-11-15T09:14:25;98037.38;;;15.44;100.00
62164;BME280;48149;51.132;7.178;2022-11-15T09:16:50;98030.19;;;16.87;98.13
62164;BME280;48149;51.132;7.178;2022-11-15T09:19:17;98027.84;;;16.61;99.37
62164;BME280;48149;51.132;7.178;2022-11-15T09:21:44;98020.13;;;16.09;100.00
62164;BME280;48149;51.132;7.178;2022-11-15T09:24:09;98025.97;;;16.76;100.00
62164;BME280;48149;51.132;7.178;2022-11-15T09:26:34;98026.19;;;15.94;100.00
62164;BME280;48149;51.132;7.178;2022-11-15T09:29:01;98031.63;;;17.34;97.43
62164;BME280;48149;51.132;7.178;2022-11-15T09:31:27;98022.75;;;16.94;95.31
62164;BME280;48149;51.132;7.178;2022-11-15T09:33:52;98021.75;;;16.40;99.28
62164;BME280;48149;51.132;7.178;2022-11-15T09:36:18;98027.06;;;18.03;87.31
62164;BME280;48149;51.132;7.178;2022-11-15T09:38:44;98023.81;;;16.98;93.96
62164;BME280;48149;51.132;7.178;2022-11-15T09:49:11;98015.78;;;17.88;82.05
62164;BME280;48149;51.132;7.178;2022-11-15T09:51:42;98015.47;;;17.94;80.01
62164;BME280;48149;51.132;7.178;2022-11-15T09:56:47;97999.63;;;19.57;70.25
62164;BME280;48149;51.132;7.178;2022-11-15T10:02:03;97989.22;;;19.79;69.32
62164;BME280;48149;51.132;7.178;2022-11-15T10:04:36;97983.63;;;19.81;67.51
62164;BME280;48149;51.132;7.178;2022-11-15T10:07:03;97987.63;;;17.97;71.36
62164;BME280;48149;51.132;7.178;2022-11-15T10:09:37;97975.31;;;17.82;77.15
62164;BME280;48149;51.132;7.178;2022-11-15T10:12:09;97971.31;;;18.19;80.07
62164;BME280;48149;51.132;7.178;2022-11-15T10:14:38;97965.31;;;17.74;78.81
62164;BME280;48149;51.132;7.178;2022-11-15T10:24:48;97935.44;;;19.87;64.13
62164;BME280;48149;51.132;7.178;2022-11-15T10:27:16;97926.03;;;19.95;62.77
62164;BME280;48149;51.132;7.178;2022-11-15T10:29:43;97928.44;;;19.40;67.29
62164;BME280;48149;51.132;7.178;2022-11-15T10:32:09;97926.69;;;19.68;68.26
62164;BME280;48149;51.132;7.178;2022-11-15T10:34:35;97935.44;;;19.87;64.64
62164;BME280;48149;51.132;7.178;2022-11-15T10:37:01;97929.38;;;20.92;59.17
62164;BME280;48149;51.132;7.178;2022-11-15T10:39:33;97927.53;;;20.33;57.29
62164;BME280;48149;51.132;7.178;2022-11-15T10:44:42;97928.53;;;18.88;63.70
62164;BME280;48149;51.132;7.178;2022-11-15T10:47:26;97920.38;;;18.84;61.54
62164;BME280;48149;51.132;7.178;2022-11-15T10:49:55;97917.34;;;19.89;58.78
62164;BME280;48149;51.132;7.178;2022-11-15T10:52:21;97923.66;;;20.26;56.51
62164;BME280;48149;51.132;7.178;2022-11-15T10:54:50;97914.44;;;18.69;61.94
62164;BME280;48149;51.132;7.178;2022-11-15T10:57:36;97913.75;;;18.58;60.24
62164;BME280;48149;51.132;7.178;2022-11-15T11:00:06;97909.34;;;18.72;57.16
62164;BME280;48149;51.132;7.178;2022-11-15T11:04:58;97909.94;;;21.33;47.05
62164;BME280;48149;51.132;7.178;2022-11-15T11:07:29;97901.19;;;19.30;53.84
62164;BME280;48149;51.132;7.178;2022-11-15T11:09:59;97904.41;;;21.65;48.82
62164;BME280;48149;51.132;7.178;2022-11-15T11:12:29;97901.25;;;21.85;45.72
62164;BME280;48149;51.132;7.178;2022-11-15T11:14:56;97896.41;;;23.36;43.10
62164;BME280;48149;51.132;7.178;2022-11-15T11:20:21;97886.69;;;24.17;38.39
62164;BME280;48149;51.132;7.178;2022-11-15T11:28:25;97882.44;;;23.30;39.61
62164;BME280;48149;51.132;7.178;2022-11-15T11:33:24;97868.13;;;23.86;39.25
62164;BME280;48149;51.132;7.178;2022-11-15T11:35:59;97882.81;;;25.11;37.79
62164;BME280;48149;51.132;7.178;2022-11-15T11:41:17;97876.53;;;19.29;53.88
62164;BME280;48149;51.132;7.178;2022-11-15T11:43:48;97866.16;;;21.25;47.65
62164;BME280;48149;51.132;7.178;2022-11-15T11:46:36;97871.19;;;20.99;44.21
62164;BME280;48149;51.132;7.178;2022-11-15T11:51:42;97851.44;;;20.05;46.33
62164;BME280;48149;51.132;7.178;2022-11-15T11:54:12;97851.41;;;17.45;55.61
62164;BME280;48149;51.132;7.178;2022-11-15T11:56:39;97849.59;;;15.77;68.01
62164;BME280;48149;51.132;7.178;2022-11-15T11:59:21;97853.50;;;15.44;75.68
62164;BME280;48149;51.132;7.178;2022-11-15T12:01:48;97842.16;;;15.39;73.91
62164;BME280;48149;51.132;7.178;2022-11-15T12:04:15;97854.84;;;15.37;78.41
62164;BME280;48149;51.132;7.178;2022-11-15T12:06:44;97845.88;;;15.28;72.33
62164;BME280;48149;51.132;7.178;2022-11-15T12:11:47;97850.44;;;14.70;78.75
62164;BME280;48149;51.132;7.178;2022-11-15T12:16:53;97851.31;;;14.34;82.93
62164;BME280;48149;51.132;7.178;2022-11-15T12:19:18;97854.69;;;14.24;82.24
62164;BME280;48149;51.132;7.178;2022-11-15T12:21:55;97853.94;;;14.34;80.99
62164;BME280;48149;51.132;7.178;2022-11-15T12:27:01;97842.84;;;14.79;83.12
62164;BME280;48149;51.132;7.178;2022-11-15T12:29:39;97822.13;;;15.28;78.91
62164;BME280;48149;51.132;7.178;2022-11-15T12:32:53;97829.94;;;14.77;82.41
62164;BME280;48149;51.132;7.178;2022-11-15T12:34:52;97825.19;;;14.84;83.46
62164;BME280;48149;51.132;7.178;2022-11-15T12:47:26;97792.56;;;14.90;84.13
62164;BME280;48149;51.132;7.178;2022-11-15T12:49:51;97783.53;;;14.81;86.57
62164;BME280;48149;51.132;7.178;2022-11-15T12:52:17;97780.47;;;15.15;83.39
62164;BME280;48149;51.132;7.178;2022-11-15T13:02:28;97767.22;;;14.84;86.58
62164;BME280;48149;51.132;7.178;2022-11-15T13:05:19;97755.56;;;14.60;89.04
62164;BME280;48149;51.132;7.178;2022-11-15T13:17:39;97737.66;;;16.04;85.98
62164;BME280;48149;51.132;7.178;2022-11-15T13:22:40;97734.97;;;16.09;81.69
62164;BME280;48149;51.132;7.178;2022-11-15T13:28:03;97726.69;;;15.06;93.08
62164;BME280;48149;51.132;7.178;2022-11-15T13:30:35;97733.53;;;15.47;93.02
62164;BME280;48149;51.132;7.178;2022-11-15T13:33:14;97728.75;;;14.78;96.34
62164;BME280;48149;51.132;7.178;2022-11-15T13:35:40;97720.94;;;14.21;100.00
62164;BME280;48149;51.132;7.178;2022-11-15T13:38:17;97723.75;;;14.05;100.00
62164;BME280;48149;51.132;7.178;2022-11-15T13:40:43;97719.63;;;14.24;100.00
62164;BME280;48149;51.132;7.178;2022-11-15T13:43:25;97715.47;;;13.81;100.00
62164;BME280;48149;51.132;7.178;2022-11-15T13:46:11;97708.44;;;13.86;100.00
62164;BME280;48149;51.132;7.178;2022-11-15T13:48:37;97714.31;;;14.14;100.00
62164;BME280;48149;51.132;7.178;2022-11-15T13:51:08;97711.97;;;13.60;100.00
62164;BME280;48149;51.132;7.178;2022-11-15T13:53:36;97697.25;;;13.64;100.00
62164;BME280;48149;51.132;7.178;2022-11-15T13:56:04;97700.44;;;13.71;100.00
62164;BME280;48149;51.132;7.178;2022-11-15T13:58:29;97694.13;;;13.67;100.00
62164;BME280;48149;51.132;7.178;2022-11-15T14:01:02;97689.00;;;13.46;100.00
62164;BME280;48149;51.132;7.178;2022-11-15T14:03:28;97685.97;;;13.27;100.00
62164;BME280;48149;51.132;7.178;2022-11-15T14:06:02;97677.75;;;13.18;100.00
62164;BME280;48149;51.132;7.178;2022-11-15T14:08:28;97668.13;;;13.34;100.00
62164;BME280;48149;51.132;7.178;2022-11-15T14:13:37;97666.50;;;13.23;100.00
62164;BME280;48149;51.132;7.178;2022-11-15T14:16:14;97657.50;;;13.14;100.00
62164;BME280;48149;51.132;7.178;2022-11-15T14:19:01;97651.47;;;13.13;100.00
62164;BME280;48149;51.132;7.178;2022-11-15T14:21:25;97659.38;;;13.18;100.00
62164;BME280;48149;51.132;7.178;2022-11-15T14:23:51;97655.81;;;13.03;100.00
62164;BME280;48149;51.132;7.178;2022-11-15T14:26:32;97648.97;;;13.02;100.00
62164;BME280;48149;51.132;7.178;2022-11-15T14:31:43;97642.28;;;13.16;100.00
62164;BME280;48149;51.132;7.178;2022-11-15T14:34:11;97633.00;;;13.08;100.00
62164;BME280;48149;51.132;7.178;2022-11-15T14:36:36;97631.22;;;13.14;100.00
62164;BME280;48149;51.132;7.178;2022-11-15T14:39:02;97636.50;;;13.14;100.00
62164;BME280;48149;51.132;7.178;2022-11-15T14:41:33;97625.94;;;13.09;100.00
62164;BME280;48149;51.132;7.178;2022-11-15T14:43:59;97621.78;;;12.86;100.00
62164;BME280;48149;51.132;7.178;2022-11-15T14:46:24;97618.34;;;12.80;100.00
62164;BME280;48149;51.132;7.178;2022-11-15T14:48:51;97607.00;;;12.75;100.00
62164;BME280;48149;51.132;7.178;2022-11-15T14:51:17;97606.13;;;12.64;100.00
62164;BME280;48149;51.132;7.178;2022-11-15T14:53:43;97608.53;;;12.71;100.00
62164;BME280;48149;51.132;7.178;2022-11-15T14:56:09;97604.09;;;12.71;100.00
62164;BME280;48149;51.132;7.178;2022-11-15T14:58:35;97601.97;;;12.68;100.00
62164;BME280;48149;51.132;7.178;2022-11-15T15:01:02;97600.13;;;12.69;100.00
62164;BME280;48149;51.132;7.178;2022-11-15T15:03:28;97593.78;;;12.65;100.00